createdAt,value
2019-04-23T00:00:05.584Z,1.70
2019-04-23T00:02:44.404Z,1.83
2019-04-23T00:05:22.924Z,1.80
2019-04-23T00:08:07.380Z,1.70
2019-04-23T00:10:19.561Z,1.90
2019-04-23T00:12:47.828Z,1.80
2019-04-23T00:15:16.776Z,1.80
2019-04-23T00:18:12.463Z,2.10
2019-04-23T00:20:25.707Z,1.90
2019-04-23T00:23:07.296Z,2.00
2019-04-23T00:26:10.565Z,1.90
2019-04-23T00:28:33.473Z,1.90
2019-04-23T00:33:30.268Z,1.80
2019-04-23T00:36:05.263Z,1.60
2019-04-23T00:43:54.710Z,1.80
2019-04-23T00:46:06.489Z,2.23
2019-04-23T00:51:09.945Z,1.87
2019-04-23T00:53:43.808Z,1.90
2019-04-23T00:56:32.110Z,1.77
2019-04-23T00:58:51.078Z,1.60
2019-04-23T01:01:24.113Z,2.00
2019-04-23T01:03:53.035Z,2.03
2019-04-23T01:06:24.307Z,1.60
2019-04-23T01:08:55.130Z,1.90
2019-04-23T01:11:27.948Z,1.60
2019-04-23T01:14:01.104Z,1.97
2019-04-23T01:16:29.902Z,2.03
2019-04-23T01:19:22.458Z,2.13
2019-04-23T01:21:30.525Z,1.80
2019-04-23T01:24:30.777Z,1.97
2019-04-23T01:32:36.941Z,1.90
2019-04-23T01:35:17.631Z,1.93
2019-04-23T01:37:52.356Z,1.73
2019-04-23T01:40:18.758Z,1.87
2019-04-23T01:52:55.111Z,2.07
2019-04-23T02:00:29.929Z,2.27
2019-04-23T02:03:02.211Z,1.80
2019-04-23T02:05:32.921Z,2.10
2019-04-23T02:08:05.244Z,1.77
2019-04-23T02:10:39.576Z,1.90
2019-04-23T02:13:12.510Z,2.03
2019-04-23T02:15:37.967Z,2.10
2019-04-23T02:18:13.374Z,1.50
2019-04-23T02:20:43.030Z,1.90
2019-04-23T02:26:01.287Z,2.20
2019-04-23T02:28:25.727Z,1.60
2019-04-23T02:41:12.903Z,1.83
2019-04-23T02:43:44.273Z,1.60
2019-04-23T02:48:54.601Z,1.90
2019-04-23T02:51:23.612Z,2.20
2019-04-23T02:56:34.736Z,1.93
2019-04-23T02:59:05.639Z,2.00
2019-04-23T03:01:31.237Z,1.90
2019-04-23T03:03:59.625Z,2.37
2019-04-23T03:06:29.963Z,2.00
2019-04-23T03:08:50.055Z,2.20
2019-04-23T03:16:57.882Z,1.90
2019-04-23T03:19:38.187Z,1.97
2019-04-23T03:22:42.012Z,2.10
2019-04-23T03:27:49.998Z,2.00
2019-04-23T03:32:37.452Z,2.10
2019-04-23T03:34:10.992Z,1.80
2019-04-23T03:41:04.050Z,1.57
2019-04-23T03:46:12.360Z,1.93
2019-04-23T03:48:34.092Z,1.73
2019-04-23T03:50:53.299Z,1.97
2019-04-23T03:53:45.437Z,2.00
2019-04-23T03:58:36.759Z,2.07
2019-04-23T04:01:11.892Z,2.33
2019-04-23T04:11:18.125Z,2.20
2019-04-23T04:13:55.327Z,1.70
2019-04-23T04:24:05.147Z,1.93
2019-04-23T04:31:30.893Z,2.00
2019-04-23T04:37:11.836Z,1.90
2019-04-23T04:39:19.709Z,2.03
2019-04-23T04:41:31.148Z,1.97
2019-04-23T04:46:43.860Z,2.27
2019-04-23T04:51:49.795Z,1.83
2019-04-23T04:56:42.561Z,1.93
2019-04-23T05:01:51.662Z,2.20
2019-04-23T05:04:28.533Z,2.20
2019-04-23T05:07:06.236Z,2.10
2019-04-23T05:14:33.399Z,2.03
2019-04-23T05:16:56.618Z,2.23
2019-04-23T05:19:35.515Z,1.97
2019-04-23T05:22:06.563Z,2.00
2019-04-23T05:27:02.951Z,2.13
2019-04-23T05:29:57.364Z,2.30
2019-04-23T05:32:10.030Z,2.10
2019-04-23T05:37:14.804Z,2.10
2019-04-23T05:39:42.767Z,2.20
2019-04-23T05:42:11.210Z,1.90
2019-04-23T05:47:24.296Z,2.00
2019-04-23T05:52:24.450Z,2.37
2019-04-23T05:54:57.565Z,2.10
2019-04-23T05:57:20.520Z,2.30
2019-04-23T05:59:54.827Z,2.10
2019-04-23T06:02:26.570Z,2.23
2019-04-23T06:04:57.158Z,1.90
2019-04-23T06:12:31.378Z,2.30
2019-04-23T06:15:05.136Z,2.30
2019-04-23T06:17:30.914Z,2.20
2019-04-23T06:20:10.154Z,1.97
2019-04-23T06:23:02.009Z,2.20
2019-04-23T06:25:30.765Z,2.20
2019-04-23T06:28:08.126Z,2.57
2019-04-23T06:30:53.030Z,2.40
2019-04-23T06:33:14.548Z,2.77
2019-04-23T06:35:46.988Z,2.27
2019-04-23T06:38:32.572Z,2.93
2019-04-23T06:40:51.943Z,2.07
2019-04-23T06:43:30.301Z,2.10
2019-04-23T06:45:52.337Z,2.10
2019-04-23T06:51:05.958Z,2.33
2019-04-23T06:53:24.499Z,2.10
2019-04-23T06:56:03.833Z,2.00
2019-04-23T06:58:32.364Z,2.17
2019-04-23T07:03:41.583Z,2.67
2019-04-23T07:06:27.013Z,2.70
2019-04-23T07:11:28.742Z,6.87
2019-04-23T07:16:34.887Z,9.07
2019-04-23T07:19:14.949Z,8.53
2019-04-23T07:21:22.433Z,6.07
2019-04-23T07:23:58.955Z,5.20
2019-04-23T07:29:15.634Z,5.90
2019-04-23T07:31:48.314Z,8.90
2019-04-23T07:36:41.056Z,6.60
2019-04-23T07:42:03.430Z,10.10
2019-04-23T07:44:56.682Z,8.33
2019-04-23T07:47:53.491Z,10.80
2019-04-23T07:53:01.915Z,7.17
2019-04-23T07:55:25.803Z,7.17
2019-04-23T07:57:58.270Z,5.43
2019-04-23T08:00:36.626Z,6.77
2019-04-23T08:03:06.476Z,13.20
2019-04-23T08:08:03.472Z,8.37
2019-04-23T08:10:42.171Z,11.37
2019-04-23T08:13:07.981Z,7.70
2019-04-23T08:15:42.548Z,7.70
2019-04-23T08:18:13.485Z,6.57
2019-04-23T08:21:05.552Z,9.67
2019-04-23T08:23:25.714Z,7.67
2019-04-23T08:26:19.536Z,6.67
2019-04-23T08:31:25.099Z,6.83
2019-04-23T08:33:56.979Z,5.87
2019-04-23T08:36:29.538Z,8.30
2019-04-23T08:38:50.789Z,9.23
2019-04-23T08:43:57.196Z,6.57
2019-04-23T08:47:13.281Z,4.23
2019-04-23T08:49:39.147Z,6.47
2019-04-23T08:59:50.243Z,6.67
2019-04-23T09:02:25.671Z,8.57
2019-04-23T09:04:51.579Z,5.47
2019-04-23T09:07:16.794Z,7.87
2019-04-23T09:09:50.807Z,6.50
2019-04-23T09:14:53.971Z,8.27
2019-04-23T09:20:11.806Z,11.83
2019-04-23T09:24:55.554Z,7.27
2019-04-23T09:27:26.203Z,8.60
2019-04-23T09:30:00.984Z,6.47
2019-04-23T09:32:36.464Z,8.57
2019-04-23T09:35:20.684Z,8.30
2019-04-23T09:43:50.170Z,6.90
2019-04-23T09:51:38.234Z,6.80
2019-04-23T09:54:22.144Z,9.27
2019-04-23T09:56:42.319Z,8.87
2019-04-23T09:59:34.302Z,10.10
2019-04-23T10:01:49.776Z,5.37
2019-04-23T10:04:00.053Z,11.27
2019-04-23T10:06:26.568Z,8.67
2019-04-23T10:08:57.849Z,10.17
2019-04-23T10:11:26.205Z,8.30
2019-04-23T10:13:56.658Z,5.60
2019-04-23T10:16:30.212Z,8.77
2019-04-23T10:18:59.371Z,7.30
2019-04-23T10:21:31.200Z,10.00
2019-04-23T10:24:01.872Z,10.20
2019-04-23T10:26:34.348Z,6.83
2019-04-23T10:29:27.730Z,5.57
2019-04-23T10:31:59.598Z,8.43
2019-04-23T10:34:42.329Z,8.80
2019-04-23T10:37:02.324Z,8.80
2019-04-23T10:39:37.846Z,7.60
2019-04-23T10:42:05.957Z,6.37
2019-04-23T10:45:13.123Z,7.97
2019-04-23T10:48:40.266Z,10.57
2019-04-23T10:51:25.040Z,9.90
2019-04-23T10:56:10.967Z,6.57
2019-04-23T11:01:14.784Z,6.50
2019-04-23T11:06:28.817Z,7.03
2019-04-23T11:08:42.467Z,7.93
2019-04-23T11:11:22.877Z,7.57
2019-04-23T11:13:54.878Z,6.57
2019-04-23T11:16:45.696Z,12.27
2019-04-23T11:21:34.310Z,9.57
2019-04-23T11:24:04.520Z,12.03
2019-04-23T11:29:03.408Z,8.83
2019-04-23T11:34:15.169Z,6.23
2019-04-23T11:39:05.055Z,10.67
2019-04-23T11:41:51.433Z,9.20
2019-04-23T11:44:18.819Z,9.40
2019-04-23T11:49:34.873Z,11.17
2019-04-23T11:54:24.220Z,5.37
2019-04-23T11:59:38.924Z,9.33
2019-04-23T12:02:17.062Z,9.87
2019-04-23T12:05:11.774Z,7.30
2019-04-23T12:08:03.827Z,5.80
2019-04-23T12:13:12.264Z,10.70
2019-04-23T12:15:51.729Z,10.57
2019-04-23T12:18:24.146Z,11.80
2019-04-23T12:20:49.070Z,11.23
2019-04-23T12:23:41.241Z,11.80
2019-04-23T12:26:06.635Z,10.23
2019-04-23T12:28:40.829Z,7.37
2019-04-23T12:31:10.043Z,8.07
2019-04-23T12:33:45.255Z,6.83
2019-04-23T12:36:41.027Z,12.87
2019-04-23T12:39:21.186Z,9.03
2019-04-23T12:41:57.127Z,7.03
2019-04-23T12:44:22.468Z,7.57
2019-04-23T12:46:55.381Z,6.03
2019-04-23T12:49:45.875Z,10.27
2019-04-23T12:52:08.361Z,6.00
2019-04-23T12:54:52.209Z,7.07
2019-04-23T12:57:12.389Z,7.83
2019-04-23T12:59:44.660Z,6.83
2019-04-23T13:04:48.439Z,11.57
2019-04-23T13:12:36.286Z,11.07
2019-04-23T13:15:05.273Z,8.93
2019-04-23T13:17:40.579Z,6.37
2019-04-23T13:20:00.676Z,7.27
2019-04-23T13:22:46.106Z,8.03
2019-04-23T13:25:32.552Z,8.93
2019-04-23T13:28:02.939Z,9.27
2019-04-23T13:30:35.547Z,12.60
2019-04-23T13:33:02.782Z,18.63
2019-04-23T13:35:48.232Z,12.00
2019-04-23T13:38:08.602Z,12.67
2019-04-23T13:43:13.967Z,10.37
2019-04-23T13:46:00.004Z,9.60
2019-04-23T13:50:49.898Z,6.80
2019-04-23T13:53:32.033Z,8.27
2019-04-23T13:55:42.613Z,7.27
2019-04-23T14:06:24.473Z,10.10
2019-04-23T14:21:28.672Z,6.67
2019-04-23T14:24:08.367Z,5.70
2019-04-23T14:28:53.293Z,9.07
2019-04-23T14:31:22.024Z,9.00
2019-04-23T14:34:07.942Z,7.87
2019-04-23T14:36:39.566Z,6.37
2019-04-23T14:39:05.619Z,5.73
2019-04-23T14:41:31.072Z,7.07
2019-04-23T14:51:58.903Z,7.87
2019-04-23T14:57:15.860Z,5.00
2019-04-23T14:59:41.255Z,5.57
2019-04-23T15:02:13.789Z,6.80
2019-04-23T15:04:39.369Z,5.73
2019-04-23T15:07:31.383Z,7.53
2019-04-23T15:09:57.661Z,10.10
2019-04-23T15:12:22.577Z,8.50
2019-04-23T15:15:02.690Z,8.43
2019-04-23T15:22:35.150Z,6.13
2019-04-23T15:25:23.471Z,7.97
2019-04-23T15:29:58.103Z,12.63
2019-04-23T15:35:23.553Z,8.70
2019-04-23T15:38:16.257Z,8.73
2019-04-23T15:40:23.651Z,5.13
2019-04-23T15:45:21.053Z,10.70
2019-04-23T15:48:00.494Z,6.93
2019-04-23T15:50:27.878Z,6.07
2019-04-23T15:52:56.603Z,7.40
2019-04-23T15:55:27.605Z,8.37
2019-04-23T16:00:30.947Z,7.60
2019-04-23T16:02:38.300Z,9.00
2019-04-23T16:05:10.054Z,9.40
2019-04-23T16:07:58.025Z,8.73
2019-04-23T16:10:52.351Z,8.67
2019-04-23T16:13:18.428Z,6.17
2019-04-23T16:18:35.248Z,5.70
2019-04-23T16:21:02.048Z,7.13
2019-04-23T16:23:27.789Z,8.57
2019-04-23T16:26:12.301Z,4.57
2019-04-23T16:28:42.186Z,7.67
2019-04-23T16:31:12.963Z,7.33
2019-04-23T16:33:48.878Z,6.93
2019-04-23T16:36:24.931Z,7.33
2019-04-23T16:38:52.046Z,7.20
2019-04-23T16:41:25.918Z,8.87
2019-04-23T16:43:59.843Z,8.43
2019-04-23T16:46:28.558Z,4.93
2019-04-23T16:49:10.147Z,6.83
2019-04-23T16:51:37.503Z,5.87
2019-04-23T16:54:01.110Z,5.70
2019-04-23T16:56:55.502Z,8.53
2019-04-23T16:59:18.194Z,7.37
2019-04-23T17:01:35.214Z,7.40
2019-04-23T17:09:21.396Z,7.63
2019-04-23T17:11:44.503Z,7.30
2019-04-23T17:14:18.747Z,5.77
2019-04-23T17:16:45.982Z,6.13
2019-04-23T17:19:22.734Z,5.93
2019-04-23T17:21:55.225Z,6.40
2019-04-23T17:26:54.249Z,10.60
2019-04-23T17:29:28.651Z,7.30
2019-04-23T17:32:05.553Z,10.83
2019-04-23T17:37:21.725Z,8.13
2019-04-23T17:40:03.780Z,8.53
2019-04-23T17:42:39.347Z,6.53
2019-04-23T17:47:59.273Z,9.10
2019-04-23T17:50:43.962Z,12.13
2019-04-23T17:55:57.653Z,7.20
2019-04-23T17:58:23.378Z,6.60
2019-04-23T18:01:07.223Z,9.83
2019-04-23T18:03:27.178Z,13.40
2019-04-23T18:08:29.052Z,7.63
2019-04-23T18:11:12.997Z,8.07
2019-04-23T18:13:34.791Z,8.40
2019-04-23T18:16:08.376Z,7.93
2019-04-23T18:21:32.879Z,9.53
2019-04-23T18:24:19.871Z,9.57
2019-04-23T18:26:46.090Z,10.67
2019-04-23T18:32:07.899Z,9.77
2019-04-23T18:34:45.407Z,9.23
2019-04-23T18:37:10.760Z,7.27
2019-04-23T18:39:42.120Z,8.13
2019-04-23T18:42:18.255Z,6.17
2019-04-23T18:44:43.424Z,5.37
2019-04-23T18:47:15.482Z,8.53
2019-04-23T18:52:27.662Z,9.93
2019-04-23T18:55:04.097Z,8.13
2019-04-23T18:59:50.888Z,7.27
2019-04-23T19:10:50.648Z,11.20
2019-04-23T19:13:24.781Z,8.93
2019-04-23T19:15:50.988Z,10.50
2019-04-23T19:18:37.533Z,7.27
2019-04-23T19:23:40.621Z,9.43
2019-04-23T19:26:09.607Z,7.33
2019-04-23T19:28:47.653Z,12.43
2019-04-23T19:31:45.588Z,8.17
2019-04-23T19:34:24.546Z,8.17
2019-04-23T19:39:17.779Z,7.50
2019-04-23T19:41:55.439Z,10.73
2019-04-23T19:44:34.561Z,7.83
2019-04-23T19:46:58.237Z,11.93
2019-04-23T19:51:56.449Z,8.57
2019-04-23T19:54:47.767Z,10.67
2019-04-23T19:56:58.197Z,8.97
2019-04-23T19:59:37.768Z,10.13
2019-04-23T20:02:00.516Z,7.73
2019-04-23T20:04:39.224Z,6.13
2019-04-23T20:09:44.366Z,10.63
2019-04-23T20:12:06.467Z,6.17
2019-04-23T20:14:47.685Z,8.47
2019-04-23T20:19:54.557Z,7.43
2019-04-23T20:24:57.665Z,11.37
2019-04-23T20:30:14.723Z,9.10
2019-04-23T20:32:12.725Z,9.13
2019-04-23T20:33:34.999Z,8.23
2019-04-23T20:35:21.989Z,9.13
2019-04-23T20:38:22.214Z,10.70
2019-04-23T20:40:34.503Z,9.27
2019-04-23T20:42:53.011Z,8.07
2019-04-23T20:45:27.352Z,6.87
2019-04-23T20:47:58.085Z,8.60
2019-04-23T20:50:26.229Z,7.00
2019-04-23T20:52:59.864Z,7.27
2019-04-23T20:55:58.414Z,9.20
2019-04-23T20:58:47.934Z,11.70
2019-04-23T21:01:09.279Z,7.47
2019-04-23T21:06:06.268Z,8.43
2019-04-23T21:09:10.177Z,11.63
2019-04-23T21:11:05.298Z,9.67
2019-04-23T21:13:55.073Z,6.30
2019-04-23T21:16:15.387Z,8.33
2019-04-23T21:18:44.241Z,7.10
2019-04-23T21:21:18.282Z,10.13
2019-04-23T21:23:50.143Z,7.07
2019-04-23T21:26:08.308Z,7.67
2019-04-23T21:28:54.237Z,6.53
2019-04-23T21:31:22.789Z,9.90
2019-04-23T21:34:06.137Z,8.27
2019-04-23T21:36:40.182Z,6.73
2019-04-23T21:39:27.133Z,7.63
2019-04-23T21:42:07.225Z,10.63
2019-04-23T21:44:32.770Z,7.30
2019-04-23T21:47:25.781Z,10.53
2019-04-23T21:52:11.414Z,10.57
2019-04-23T21:54:51.610Z,8.87
2019-04-23T21:57:14.715Z,9.80
2019-04-23T21:59:50.823Z,10.67
2019-04-23T22:02:21.956Z,6.87
2019-04-23T22:04:52.047Z,8.03
2019-04-23T22:07:29.473Z,9.20
2019-04-23T22:09:59.209Z,8.13
2019-04-23T22:12:23.249Z,8.00
2019-04-23T22:14:55.387Z,8.77
2019-04-23T22:17:33.055Z,7.27
2019-04-23T22:22:44.203Z,7.97
2019-04-23T22:25:31.932Z,8.17
2019-04-23T22:27:41.207Z,8.87
2019-04-23T22:30:02.908Z,10.33
2019-04-23T22:32:52.152Z,8.70
2019-04-23T22:35:10.710Z,7.33
2019-04-23T22:37:56.816Z,9.07
2019-04-23T22:40:10.146Z,8.63
2019-04-23T22:45:21.102Z,5.93
2019-04-23T22:47:58.468Z,8.33
2019-04-23T22:53:08.726Z,7.93
2019-04-23T22:55:28.065Z,7.13
2019-04-23T23:00:24.935Z,8.10
2019-04-23T23:06:04.329Z,6.93
2019-04-23T23:08:17.440Z,10.57
2019-04-23T23:10:50.685Z,9.80
2019-04-23T23:13:18.533Z,9.73
2019-04-23T23:15:59.581Z,7.37
2019-04-23T23:20:59.584Z,9.97
2019-04-23T23:23:30.093Z,7.83
2019-04-23T23:26:02.848Z,9.90
2019-04-23T23:36:23.289Z,9.40
2019-04-23T23:41:28.698Z,10.87
2019-04-23T23:46:22.209Z,7.67
2019-04-23T23:48:48.391Z,8.27
2019-04-23T23:53:58.600Z,8.53
2019-04-23T23:58:58.621Z,9.17
